Temp: 10.5°C   Baro: 992.3mb
  Wind: 2.9mph   Dir: SE (132°)
  Rain: 1.8mm (1.0mm/hr)
  Solar: 0W/m2  Hum: 83%
 
Bath Spa Weather Station Historical Data
Daily Summary for August 4, 2019 Units:  Both    English   Metric
Daily Weekly Monthly Yearly Custom
  High: Low: Average:
Temperature: 57.2 °F /  14 °C 48.9 °F /  9.4 °C 54.2 °F /  12.3 °C
Dew Point: 53.6 °F /  12 °C 47.3 °F /  8.5 °C 50.8 °F /  10.4 °C
Humidity: 94% 79.9% 88%
Wind Speed: 13.8mph /  22.2km/h - 4.7mph /  7.6km/h
Wind Gust: 26mph /  41.8km/h - -
Wind- - WNW
Pressure: 29.84 in /  1010.4 hPa 29.65 in /  1003.9 hPa -
Precipitation: 0.08 in /  2.03 mm    
Historical Graphs
 
 
Tabular Data for August 4, 2019
Time Temperature Dew Point Pressure Wind Wind Speed Wind Gust Humidity Rainfall Rate (Hourly) solar
00:04 55.4 °F /  13 °C 53.4 °F /  11.9 °C 29.67in /  1004.6hPa West 7.8mph /  12.6km/h 16mph /  25.7km/h 93% 0.01in /  0.25mm 0 W/m2
00:09 55.3 °F /  12.9 °C 53.3 °F /  11.8 °C 29.67in /  1004.6hPa WNW 9.1mph /  14.6km/h 16mph /  25.7km/h 93% 0.01in /  0.25mm 0 W/m2
00:14 55.2 °F /  12.9 °C 52.9 °F /  11.6 °C 29.67in /  1004.6hPa West 8.7mph /  14km/h 16mph /  25.7km/h 92.1% 0.01in /  0.25mm 0 W/m2
00:19 55.2 °F /  12.9 °C 52.9 °F /  11.6 °C 29.66in /  1004.3hPa West 4.5mph /  7.2km/h 16mph /  25.7km/h 92% 0.01in /  0.25mm 0 W/m2
00:24 55 °F /  12.8 °C 52.7 °F /  11.5 °C 29.66in /  1004.3hPa West 8.2mph /  13.2km/h 16mph /  25.7km/h 91.9% 0.00in /  0mm 0 W/m2
00:29 55 °F /  12.8 °C 52.4 °F /  11.3 °C 29.67in /  1004.6hPa WNW 5mph /  8km/h 13mph /  20.9km/h 91% 0.00in /  0mm 0 W/m2
00:34 54.9 °F /  12.7 °C 52.3 °F /  11.3 °C 29.67in /  1004.6hPa WNW 6.6mph /  10.6km/h 11mph /  17.7km/h 91% 0.00in /  0mm 0 W/m2
00:39 54.8 °F /  12.7 °C 52.2 °F /  11.2 °C 29.67in /  1004.6hPa West 4mph /  6.4km/h 10mph /  16.1km/h 91% 0.00in /  0mm 0 W/m2
00:44 54.6 °F /  12.6 °C 51.7 °F /  10.9 °C 29.66in /  1004.3hPa West 5mph /  8km/h 10mph /  16.1km/h 90% 0.00in /  0mm 0 W/m2
00:49 54.5 °F /  12.5 °C 51.6 °F /  10.9 °C 29.66in /  1004.3hPa WNW 4.9mph /  7.9km/h 9mph /  14.5km/h 90% 0.00in /  0mm 0 W/m2
00:54 54.4 °F /  12.4 °C 51.3 °F /  10.7 °C 29.66in /  1004.3hPa WNW 4.5mph /  7.2km/h 8mph /  12.9km/h 89.3% 0.00in /  0mm 0 W/m2
00:59 54.3 °F /  12.4 °C 51.1 °F /  10.6 °C 29.66in /  1004.3hPa West 4.8mph /  7.7km/h 9mph /  14.5km/h 89% 0.00in /  0mm 0 W/m2
01:04 54.2 °F /  12.3 °C 51 °F /  10.6 °C 29.66in /  1004.3hPa West 4mph /  6.4km/h 7mph /  11.3km/h 89% 0.00in /  0mm 0 W/m2
01:09 54.1 °F /  12.3 °C 50.9 °F /  10.5 °C 29.66in /  1004.3hPa WNW 5mph /  8km/h 9mph /  14.5km/h 89% 0.00in /  0mm 0 W/m2
01:14 54 °F /  12.2 °C 50.7 °F /  10.4 °C 29.66in /  1004.3hPa West 4mph /  6.4km/h 9mph /  14.5km/h 88.9% 0.00in /  0mm 0 W/m2
01:19 54.1 °F /  12.3 °C 50.8 °F /  10.4 °C 29.67in /  1004.6hPa WNW 6mph /  9.7km/h 11mph /  17.7km/h 89% 0.00in /  0mm 0 W/m2
01:24 54.2 °F /  12.3 °C 51 °F /  10.6 °C 29.67in /  1004.6hPa WNW 5.2mph /  8.4km/h 11mph /  17.7km/h 88.6% 0.00in /  0mm 0 W/m2
01:29 54.3 °F /  12.4 °C 50.9 °F /  10.5 °C 29.67in /  1004.6hPa West 5.3mph /  8.5km/h 11mph /  17.7km/h 88% 0.00in /  0mm 0 W/m2
01:34 54.3 °F /  12.4 °C 50.9 °F /  10.5 °C 29.67in /  1004.6hPa West 5.7mph /  9.2km/h 11mph /  17.7km/h 88% 0.00in /  0mm 0 W/m2
01:39 54.3 °F /  12.4 °C 50.9 °F /  10.5 °C 29.67in /  1004.6hPa WNW 5.9mph /  9.5km/h 11mph /  17.7km/h 88% 0.00in /  0mm 0 W/m2
01:44 54.4 °F /  12.4 °C 50.8 °F /  10.4 °C 29.67in /  1004.6hPa WNW 7.8mph /  12.6km/h 13mph /  20.9km/h 87.6% 0.00in /  0mm 0 W/m2
01:49 54.5 °F /  12.5 °C 50.7 °F /  10.4 °C 29.67in /  1004.6hPa WNW 7mph /  11.3km/h 12mph /  19.3km/h 87% 0.00in /  0mm 0 W/m2
01:54 54.5 °F /  12.5 °C 50.6 °F /  10.3 °C 29.67in /  1004.6hPa WNW 6.6mph /  10.6km/h 12mph /  19.3km/h 86.8% 0.00in /  0mm 0 W/m2
01:59 54.5 °F /  12.5 °C 50.4 °F /  10.2 °C 29.66in /  1004.3hPa WNW 9.6mph /  15.4km/h 16mph /  25.7km/h 86% 0.00in /  0mm 0 W/m2
02:04 54.5 °F /  12.5 °C 50 °F /  10 °C 29.66in /  1004.3hPa WNW 7.9mph /  12.7km/h 16mph /  25.7km/h 85% 0.00in /  0mm 0 W/m2
02:09 54.5 °F /  12.5 °C 49.9 °F /  9.9 °C 29.66in /  1004.3hPa WNW 7.6mph /  12.2km/h 13mph /  20.9km/h 84.5% 0.00in /  0mm 0 W/m2
02:14 54.5 °F /  12.5 °C 49.8 °F /  9.9 °C 29.66in /  1004.3hPa WNW 7.7mph /  12.4km/h 13mph /  20.9km/h 84% 0.00in /  0mm 0 W/m2
02:19 54.4 °F /  12.4 °C 49.7 °F /  9.8 °C 29.66in /  1004.3hPa WNW 7mph /  11.3km/h 12mph /  19.3km/h 84% 0.00in /  0mm 0 W/m2
02:24 54.3 °F /  12.4 °C 49.6 °F /  9.8 °C 29.66in /  1004.3hPa WNW 5.2mph /  8.4km/h 9mph /  14.5km/h 84% 0.00in /  0mm 0 W/m2
02:29 54.3 °F /  12.4 °C 49.6 °F /  9.8 °C 29.66in /  1004.3hPa WNW 5.5mph /  8.9km/h 11mph /  17.7km/h 84% 0.00in /  0mm 0 W/m2
02:34 54.2 °F /  12.3 °C 49.6 °F /  9.8 °C 29.66in /  1004.3hPa WNW 3.2mph /  5.1km/h 11mph /  17.7km/h 84% 0.00in /  0mm 0 W/m2
02:39 54.1 °F /  12.3 °C 49.5 °F /  9.7 °C 29.65in /  1003.9hPa WNW 1.2mph /  1.9km/h 7mph /  11.3km/h 84% 0.00in /  0mm 0 W/m2
02:44 54.1 °F /  12.3 °C 49.6 °F /  9.8 °C 29.66in /  1004.3hPa West 2.5mph /  4km/h 6mph /  9.7km/h 84.3% 0.00in /  0mm 0 W/m2
02:49 54.1 °F /  12.3 °C 49.8 °F /  9.9 °C 29.66in /  1004.3hPa West 5.3mph /  8.5km/h 8mph /  12.9km/h 85% 0.00in /  0mm 0 W/m2
02:54 54.1 °F /  12.3 °C 49.8 °F /  9.9 °C 29.66in /  1004.3hPa West 3.7mph /  6km/h 7mph /  11.3km/h 85% 0.00in /  0mm 0 W/m2
02:59 54.1 °F /  12.3 °C 49.8 °F /  9.9 °C 29.66in /  1004.3hPa West 3.8mph /  6.1km/h 8mph /  12.9km/h 85.1% 0.00in /  0mm 0 W/m2
03:04 54.2 °F /  12.3 °C 50.1 °F /  10.1 °C 29.66in /  1004.3hPa West 4.8mph /  7.7km/h 10mph /  16.1km/h 86% 0.00in /  0mm 0 W/m2
03:09 54.3 °F /  12.4 °C 50.2 °F /  10.1 °C 29.66in /  1004.3hPa WNW 5.2mph /  8.4km/h 12mph /  19.3km/h 86% 0.00in /  0mm 0 W/m2
03:14 54.4 °F /  12.4 °C 50.5 °F /  10.3 °C 29.66in /  1004.3hPa WNW 8.2mph /  13.2km/h 13mph /  20.9km/h 86.7% 0.00in /  0mm 0 W/m2
03:19 54.7 °F /  12.6 °C 50.5 °F /  10.3 °C 29.66in /  1004.3hPa WNW 6.9mph /  11.1km/h 13mph /  20.9km/h 86% 0.00in /  0mm 0 W/m2
03:24 54.9 °F /  12.7 °C 50.7 °F /  10.4 °C 29.66in /  1004.3hPa WNW 8.9mph /  14.3km/h 14mph /  22.5km/h 86% 0.00in /  0mm 0 W/m2
03:29 54.9 °F /  12.7 °C 50.5 °F /  10.3 °C 29.66in /  1004.3hPa WNW 6.9mph /  11.1km/h 14mph /  22.5km/h 85.4% 0.00in /  0mm 0 W/m2
03:34 54.8 °F /  12.7 °C 50.3 °F /  10.2 °C 29.66in /  1004.3hPa WNW 7.6mph /  12.2km/h 16mph /  25.7km/h 85% 0.00in /  0mm 0 W/m2
03:39 54.6 °F /  12.6 °C 50 °F /  10 °C 29.66in /  1004.3hPa WNW 6.1mph /  9.8km/h 12mph /  19.3km/h 84.3% 0.00in /  0mm 0 W/m2
03:44 54.5 °F /  12.5 °C 49.8 °F /  9.9 °C 29.66in /  1004.3hPa WNW 7.5mph /  12.1km/h 15mph /  24.1km/h 84% 0.00in /  0mm 0 W/m2
03:49 54.4 °F /  12.4 °C 49.7 °F /  9.8 °C 29.66in /  1004.3hPa WNW 5.9mph /  9.5km/h 15mph /  24.1km/h 84% 0.00in /  0mm 0 W/m2
03:54 54.3 °F /  12.4 °C 49.6 °F /  9.8 °C 29.66in /  1004.3hPa WNW 6mph /  9.7km/h 11mph /  17.7km/h 84% 0.00in /  0mm 0 W/m2
03:59 54.4 °F /  12.4 °C 49.7 °F /  9.8 °C 29.66in /  1004.3hPa West 5.6mph /  9km/h 11mph /  17.7km/h 84% 0.00in /  0mm 0 W/m2
04:04 54.5 °F /  12.5 °C 49.8 °F /  9.9 °C 29.66in /  1004.3hPa West 7.7mph /  12.4km/h 12mph /  19.3km/h 84% 0.00in /  0mm 0 W/m2
04:09 54.5 °F /  12.5 °C 49.8 °F /  9.9 °C 29.66in /  1004.3hPa West 7.1mph /  11.4km/h 14mph /  22.5km/h 84% 0.00in /  0mm 0 W/m2
04:14 54.3 °F /  12.4 °C 49.6 °F /  9.8 °C 29.66in /  1004.3hPa West 9mph /  14.5km/h 19mph /  30.6km/h 84% 0.00in /  0mm 0 W/m2
04:19 54.3 °F /  12.4 °C 49.7 °F /  9.8 °C 29.67in /  1004.6hPa WNW 9mph /  14.5km/h 15mph /  24.1km/h 84.4% 0.00in /  0mm 0 W/m2
04:24 54.3 °F /  12.4 °C 49.7 °F /  9.8 °C 29.67in /  1004.6hPa West 8.8mph /  14.2km/h 16mph /  25.7km/h 84.7% 0.00in /  0mm 0 W/m2
04:29 54.2 °F /  12.3 °C 49.8 °F /  9.9 °C 29.67in /  1004.6hPa West 7.6mph /  12.2km/h 16mph /  25.7km/h 85% 0.00in /  0mm 0 W/m2
04:34 54.1 °F /  12.3 °C 49.8 °F /  9.9 °C 29.67in /  1004.6hPa West 7.3mph /  11.7km/h 14mph /  22.5km/h 85% 0.00in /  0mm 0 W/m2
04:39 54 °F /  12.2 °C 49.7 °F /  9.8 °C 29.67in /  1004.6hPa WNW 5.9mph /  9.5km/h 13mph /  20.9km/h 85.4% 0.00in /  0mm 0 W/m2
04:44 53.9 °F /  12.2 °C 49.7 °F /  9.8 °C 29.67in /  1004.6hPa WNW 6.9mph /  11.1km/h 12mph /  19.3km/h 86% 0.00in /  0mm 0 W/m2
04:49 53.9 °F /  12.2 °C 49.9 °F /  9.9 °C 29.67in /  1004.6hPa West 6.8mph /  10.9km/h 12mph /  19.3km/h 86.5% 0.00in /  0mm 0 W/m2
04:54 53.8 °F /  12.1 °C 50 °F /  10 °C 29.67in /  1004.6hPa West 6mph /  9.7km/h 10mph /  16.1km/h 87% 0.00in /  0mm 0 W/m2
04:59 53.6 °F /  12 °C 49.8 °F /  9.9 °C 29.67in /  1004.6hPa WNW 6.5mph /  10.5km/h 12mph /  19.3km/h 87% 0.00in /  0mm 0 W/m2
05:04 53.6 °F /  12 °C 50 °F /  10 °C 29.67in /  1004.6hPa WNW 4.5mph /  7.2km/h 12mph /  19.3km/h 87.5% 0.00in /  0mm 0 W/m2
05:09 53.6 °F /  12 °C 50.1 °F /  10.1 °C 29.67in /  1004.6hPa WNW 4.7mph /  7.6km/h 9mph /  14.5km/h 87.8% 0.00in /  0mm 0 W/m2
05:14 53.6 °F /  12 °C 50.2 °F /  10.1 °C 29.67in /  1004.6hPa WNW 4.5mph /  7.2km/h 9mph /  14.5km/h 88% 0.00in /  0mm 0 W/m2
05:19 53.6 °F /  12 °C 50.2 °F /  10.1 °C 29.67in /  1004.6hPa West 4.5mph /  7.2km/h 9mph /  14.5km/h 88% 0.00in /  0mm 0 W/m2
05:24 53.4 °F /  11.9 °C 50 °F /  10 °C 29.67in /  1004.6hPa WNW 5.3mph /  8.5km/h 8mph /  12.9km/h 88% 0.00in /  0mm 0 W/m2
05:29 53.2 °F /  11.8 °C 49.9 °F /  9.9 °C 29.67in /  1004.6hPa WNW 4.4mph /  7.1km/h 8mph /  12.9km/h 88.6% 0.00in /  0mm 0 W/m2
05:34 53.1 °F /  11.7 °C 49.7 °F /  9.8 °C 29.67in /  1004.6hPa WNW 5.1mph /  8.2km/h 9mph /  14.5km/h 88.7% 0.00in /  0mm 0 W/m2
05:39 52.9 °F /  11.6 °C 49.6 °F /  9.8 °C 29.67in /  1004.6hPa WNW 4.6mph /  7.4km/h 7mph /  11.3km/h 89% 0.00in /  0mm 0 W/m2
05:44 52.9 °F /  11.6 °C 49.6 °F /  9.8 °C 29.67in /  1004.6hPa West 4.6mph /  7.4km/h 7mph /  11.3km/h 89% 0.00in /  0mm 0 W/m2
05:49 52.8 °F /  11.6 °C 49.5 °F /  9.7 °C 29.67in /  1004.6hPa WNW 4.3mph /  6.9km/h 8mph /  12.9km/h 89% 0.00in /  0mm 0 W/m2
05:54 52.7 °F /  11.5 °C 49.5 °F /  9.7 °C 29.67in /  1004.6hPa WNW 4.3mph /  6.9km/h 8mph /  12.9km/h 89% 0.00in /  0mm 0 W/m2
05:59 52.7 °F /  11.5 °C 49.5 °F /  9.7 °C 29.66in /  1004.3hPa WNW 3.2mph /  5.1km/h 7mph /  11.3km/h 89% 0.00in /  0mm 0 W/m2
06:04 52.6 °F /  11.4 °C 49.5 °F /  9.7 °C 29.66in /  1004.3hPa WNW 4.1mph /  6.6km/h 7mph /  11.3km/h 89% 0.00in /  0mm 0 W/m2
06:09 52.5 °F /  11.4 °C 49.5 °F /  9.7 °C 29.67in /  1004.6hPa WNW 4.5mph /  7.2km/h 9mph /  14.5km/h 89% 0.00in /  0mm 0 W/m2
06:14 53 °F /  11.7 °C 49.7 °F /  9.8 °C 29.67in /  1004.6hPa West 7.1mph /  11.4km/h 13mph /  20.9km/h 89% 0.00in /  0mm 0 W/m2
06:19 53.3 °F /  11.8 °C 49.9 °F /  9.9 °C 29.67in /  1004.6hPa West 7.5mph /  12.1km/h 18mph /  29km/h 88.5% 0.00in /  0mm 0 W/m2
06:24 53.4 °F /  11.9 °C 50 °F /  10 °C 29.67in /  1004.6hPa WNW 7.9mph /  12.7km/h 17mph /  27.4km/h 88% 0.00in /  0mm 0 W/m2
06:29 53.6 °F /  12 °C 50.2 °F /  10.1 °C 29.66in /  1004.3hPa West 8.5mph /  13.7km/h 16mph /  25.7km/h 88% 0.00in /  0mm 0 W/m2
06:34 53.8 °F /  12.1 °C 50.3 °F /  10.2 °C 29.66in /  1004.3hPa WNW 9.7mph /  15.6km/h 18mph /  29km/h 87.8% 0.00in /  0mm 0 W/m2
06:39 53.8 °F /  12.1 °C 50 °F /  10 °C 29.66in /  1004.3hPa WNW 6.5mph /  10.5km/h 13mph /  20.9km/h 87% 0.00in /  0mm 0 W/m2
06:44 53.6 °F /  12 °C 49.8 °F /  9.9 °C 29.66in /  1004.3hPa WNW 7mph /  11.3km/h 13mph /  20.9km/h 87% 0.00in /  0mm 0 W/m2
06:49 53.5 °F /  11.9 °C 49.7 °F /  9.8 °C 29.66in /  1004.3hPa WNW 8.4mph /  13.5km/h 13mph /  20.9km/h 87% 0.00in /  0mm 0 W/m2
06:54 53.5 °F /  11.9 °C 49.7 °F /  9.8 °C 29.66in /  1004.3hPa WNW 7.1mph /  11.4km/h 12mph /  19.3km/h 87% 0.00in /  0mm 0 W/m2
06:59 53.4 °F /  11.9 °C 49.6 °F /  9.8 °C 29.66in /  1004.3hPa WNW 5.5mph /  8.9km/h 10mph /  16.1km/h 87% 0.00in /  0mm 0 W/m2
07:04 53.4 °F /  11.9 °C 49.6 °F /  9.8 °C 29.66in /  1004.3hPa WNW 6.2mph /  10km/h 11mph /  17.7km/h 87% 0.00in /  0mm 0 W/m2
07:09 53.5 °F /  11.9 °C 49.7 °F /  9.8 °C 29.66in /  1004.3hPa WNW 4.1mph /  6.6km/h 9mph /  14.5km/h 87% 0.00in /  0mm 0 W/m2
07:14 53.6 °F /  12 °C 49.8 °F /  9.9 °C 29.66in /  1004.3hPa WNW 4.9mph /  7.9km/h 9mph /  14.5km/h 87% 0.00in /  0mm 0 W/m2
07:19 53.5 °F /  11.9 °C 49.6 °F /  9.8 °C 29.66in /  1004.3hPa WNW 4.6mph /  7.4km/h 9mph /  14.5km/h 86.5% 0.00in /  0mm 5 W/m2
07:24 53.6 °F /  12 °C 49.5 °F /  9.7 °C 29.66in /  1004.3hPa WNW 5.4mph /  8.7km/h 10mph /  16.1km/h 86.1% 0.00in /  0mm 5 W/m2
07:29 53.8 °F /  12.1 °C 49.6 °F /  9.8 °C 29.66in /  1004.3hPa West 9.6mph /  15.4km/h 19mph /  30.6km/h 86% 0.00in /  0mm 7 W/m2
07:34 54.1 °F /  12.3 °C 50 °F /  10 °C 29.66in /  1004.3hPa West 9mph /  14.5km/h 19mph /  30.6km/h 85.8% 0.00in /  0mm 12 W/m2
07:39 54.3 °F /  12.4 °C 49.8 °F /  9.9 °C 29.66in /  1004.3hPa West 9.9mph /  15.9km/h 18mph /  29km/h 85% 0.00in /  0mm 18 W/m2
07:44 54.3 °F /  12.4 °C 49.6 °F /  9.8 °C 29.66in /  1004.3hPa West 7.7mph /  12.4km/h 14mph /  22.5km/h 84.2% 0.00in /  0mm 21 W/m2
07:49 54.1 °F /  12.3 °C 49.6 °F /  9.8 °C 29.65in /  1003.9hPa West 5.8mph /  9.3km/h 14mph /  22.5km/h 84.4% 0.00in /  0mm 26 W/m2
07:54 54.1 °F /  12.3 °C 49.8 °F /  9.9 °C 29.65in /  1003.9hPa WNW 6.4mph /  10.3km/h 12mph /  19.3km/h 85% 0.00in /  0mm 32 W/m2
07:59 54.3 °F /  12.4 °C 49.7 °F /  9.8 °C 29.66in /  1004.3hPa WNW 6.2mph /  10km/h 11mph /  17.7km/h 84.4% 0.00in /  0mm 44 W/m2
08:04 54.3 °F /  12.4 °C 49.6 °F /  9.8 °C 29.66in /  1004.3hPa WNW 6.4mph /  10.3km/h 14mph /  22.5km/h 84% 0.00in /  0mm 84 W/m2
08:09 54.7 °F /  12.6 °C 50 °F /  10 °C 29.66in /  1004.3hPa West 7.5mph /  12.1km/h 14mph /  22.5km/h 84% 0.00in /  0mm 67 W/m2
08:14 54.9 °F /  12.7 °C 49.8 °F /  9.9 °C 29.66in /  1004.3hPa West 7.1mph /  11.4km/h 12mph /  19.3km/h 83% 0.00in /  0mm 67 W/m2
08:19 54.9 °F /  12.7 °C 49.8 °F /  9.9 °C 29.66in /  1004.3hPa West 9.1mph /  14.6km/h 15mph /  24.1km/h 83% 0.00in /  0mm 67 W/m2
08:24 55 °F /  12.8 °C 49.6 °F /  9.8 °C 29.67in /  1004.6hPa West 7.6mph /  12.2km/h 15mph /  24.1km/h 82% 0.00in /  0mm 91 W/m2
08:29 55 °F /  12.8 °C 49.6 °F /  9.8 °C 29.66in /  1004.3hPa West 6.2mph /  10km/h 11mph /  17.7km/h 82% 0.00in /  0mm 77 W/m2
08:34 55.2 °F /  12.9 °C 49.8 °F /  9.9 °C 29.67in /  1004.6hPa West 8.5mph /  13.7km/h 16mph /  25.7km/h 82% 0.00in /  0mm 83 W/m2
08:39 55.2 °F /  12.9 °C 49.9 °F /  9.9 °C 29.66in /  1004.3hPa West 6.3mph /  10.1km/h 16mph /  25.7km/h 82.2% 0.00in /  0mm 125 W/m2
08:44 55.4 °F /  13 °C 50.4 °F /  10.2 °C 29.66in /  1004.3hPa West 5.5mph /  8.9km/h 12mph /  19.3km/h 83% 0.00in /  0mm 125 W/m2
08:49 55.4 °F /  13 °C 50.7 °F /  10.4 °C 29.66in /  1004.3hPa West 5.5mph /  8.9km/h 9mph /  14.5km/h 84% 0.00in /  0mm 90 W/m2
08:54 55.3 °F /  12.9 °C 50.8 °F /  10.4 °C 29.66in /  1004.3hPa West 4.1mph /  6.6km/h 8mph /  12.9km/h 84.8% 0.00in /  0mm 107 W/m2
08:59 55.1 °F /  12.8 °C 50.7 °F /  10.4 °C 29.67in /  1004.6hPa West 4.7mph /  7.6km/h 8mph /  12.9km/h 85.3% 0.02in /  0.51mm 28 W/m2
09:04 54.7 °F /  12.6 °C 50.6 °F /  10.3 °C 29.67in /  1004.6hPa WNW 3.9mph /  6.3km/h 8mph /  12.9km/h 86.3% 0.02in /  0.51mm 37 W/m2
09:09 54.3 °F /  12.4 °C 50.6 °F /  10.3 °C 29.67in /  1004.6hPa WNW 3mph /  4.8km/h 6mph /  9.7km/h 87% 0.02in /  0.51mm 54 W/m2
09:14 54.1 °F /  12.3 °C 50.7 °F /  10.4 °C 29.67in /  1004.6hPa WNW 4.6mph /  7.4km/h 9mph /  14.5km/h 88% 0.02in /  0.51mm 47 W/m2
09:19 53.8 °F /  12.1 °C 50.5 °F /  10.3 °C 29.67in /  1004.6hPa WNW 5.8mph /  9.3km/h 12mph /  19.3km/h 88.7% 0.02in /  0.51mm 142 W/m2
09:24 53.6 °F /  12 °C 50.4 °F /  10.2 °C 29.66in /  1004.3hPa West 4.1mph /  6.6km/h 12mph /  19.3km/h 89% 0.02in /  0.51mm 193 W/m2
09:29 53.6 °F /  12 °C 50.6 °F /  10.3 °C 29.66in /  1004.3hPa WNW 4.8mph /  7.7km/h 10mph /  16.1km/h 89.7% 0.02in /  0.51mm 193 W/m2
09:34 53.9 °F /  12.2 °C 51 °F /  10.6 °C 29.66in /  1004.3hPa WNW 4.4mph /  7.1km/h 7mph /  11.3km/h 90% 0.02in /  0.51mm 265 W/m2
09:39 54.3 °F /  12.4 °C 51.6 °F /  10.9 °C 29.66in /  1004.3hPa West 3.1mph /  5km/h 10mph /  16.1km/h 90.3% 0.02in /  0.51mm 287 W/m2
09:44 55 °F /  12.8 °C 52.3 °F /  11.3 °C 29.66in /  1004.3hPa WNW 5.3mph /  8.5km/h 12mph /  19.3km/h 90.7% 0.02in /  0.51mm 339 W/m2
09:49 55.5 °F /  13.1 °C 52.7 °F /  11.5 °C 29.66in /  1004.3hPa WNW 5.6mph /  9km/h 12mph /  19.3km/h 90.1% 0.02in /  0.51mm 392 W/m2
09:54 56.1 °F /  13.4 °C 52.8 °F /  11.6 °C 29.66in /  1004.3hPa WNW 7.4mph /  11.9km/h 13mph /  20.9km/h 88.6% 0.02in /  0.51mm 376 W/m2
09:59 56.4 °F /  13.6 °C 52.7 °F /  11.5 °C 29.66in /  1004.3hPa WNW 5.2mph /  8.4km/h 13mph /  20.9km/h 87.3% 0.02in /  0.51mm 204 W/m2
10:04 56.5 °F /  13.6 °C 52.3 °F /  11.3 °C 29.66in /  1004.3hPa WNW 7.1mph /  11.4km/h 12mph /  19.3km/h 86% 0.01in /  0.25mm 227 W/m2
10:09 56.7 °F /  13.7 °C 52 °F /  11.1 °C 29.66in /  1004.3hPa WNW 8.2mph /  13.2km/h 17mph /  27.4km/h 84.6% 0.01in /  0.25mm 288 W/m2
10:14 56.9 °F /  13.8 °C 52.1 °F /  11.2 °C 29.66in /  1004.3hPa WNW 6.1mph /  9.8km/h 13mph /  20.9km/h 84% 0.00in /  0mm 241 W/m2
10:19 57 °F /  13.9 °C 51.9 °F /  11.1 °C 29.66in /  1004.3hPa WNW 7.9mph /  12.7km/h 14mph /  22.5km/h 82.9% 0.00in /  0mm 181 W/m2
10:24 56.9 °F /  13.8 °C 51.3 °F /  10.7 °C 29.66in /  1004.3hPa WNW 8.4mph /  13.5km/h 15mph /  24.1km/h 81.5% 0.01in /  0.25mm 76 W/m2
10:29 56.5 °F /  13.6 °C 51 °F /  10.6 °C 29.66in /  1004.3hPa WNW 6.8mph /  10.9km/h 15mph /  24.1km/h 81.6% 0.01in /  0.25mm 69 W/m2
10:34 56.3 °F /  13.5 °C 51 °F /  10.6 °C 29.66in /  1004.3hPa WNW 6.8mph /  10.9km/h 13mph /  20.9km/h 82.3% 0.01in /  0.25mm 69 W/m2
10:39 56.2 °F /  13.4 °C 51.2 °F /  10.7 °C 29.66in /  1004.3hPa West 7.3mph /  11.7km/h 16mph /  25.7km/h 83% 0.01in /  0.25mm 65 W/m2
10:44 55.9 °F /  13.3 °C 51.2 °F /  10.7 °C 29.66in /  1004.3hPa WNW 8.5mph /  13.7km/h 16mph /  25.7km/h 83.8% 0.02in /  0.51mm 91 W/m2
10:49 55.8 °F /  13.2 °C 51.3 °F /  10.7 °C 29.66in /  1004.3hPa West 9.1mph /  14.6km/h 18mph /  29km/h 84.8% 0.02in /  0.51mm 169 W/m2
10:54 56 °F /  13.3 °C 51.5 °F /  10.8 °C 29.66in /  1004.3hPa WNW 7.7mph /  12.4km/h 18mph /  29km/h 85% 0.02in /  0.51mm 169 W/m2
10:59 56.3 °F /  13.5 °C 51.8 °F /  11 °C 29.66in /  1004.3hPa West 5.8mph /  9.3km/h 13mph /  20.9km/h 85% 0.02in /  0.51mm 174 W/m2
11:04 56.5 °F /  13.6 °C 52 °F /  11.1 °C 29.66in /  1004.3hPa WNW 5.2mph /  8.4km/h 10mph /  16.1km/h 85% 0.02in /  0.51mm 176 W/m2
11:09 56.7 °F /  13.7 °C 52.1 °F /  11.2 °C 29.66in /  1004.3hPa WNW 7.9mph /  12.7km/h 15mph /  24.1km/h 84.6% 0.02in /  0.51mm 181 W/m2
11:14 57 °F /  13.9 °C 52 °F /  11.1 °C 29.66in /  1004.3hPa West 6.5mph /  10.5km/h 15mph /  24.1km/h 83.3% 0.02in /  0.51mm 169 W/m2
11:19 57.2 °F /  14 °C 52.1 °F /  11.2 °C 29.66in /  1004.3hPa West 5.8mph /  9.3km/h 14mph /  22.5km/h 82.7% 0.02in /  0.51mm 171 W/m2
11:24 57.1 °F /  13.9 °C 51.7 °F /  10.9 °C 29.66in /  1004.3hPa West 11.3mph /  18.2km/h 23mph /  37km/h 82% 0.02in /  0.51mm 114 W/m2
11:29 56.8 °F /  13.8 °C 51.4 °F /  10.8 °C 29.66in /  1004.3hPa West 10.4mph /  16.7km/h 23mph /  37km/h 82% 0.01in /  0.25mm 149 W/m2
11:34 56.7 °F /  13.7 °C 51.3 °F /  10.7 °C 29.66in /  1004.3hPa WNW 12.4mph /  20km/h 23mph /  37km/h 82% 0.01in /  0.25mm 211 W/m2
11:39 56.7 °F /  13.7 °C 51.3 °F /  10.7 °C 29.66in /  1004.3hPa West 8.3mph /  13.4km/h 22mph /  35.4km/h 82.1% 0.01in /  0.25mm 269 W/m2
11:44 56.6 °F /  13.7 °C 51.5 °F /  10.8 °C 29.66in /  1004.3hPa West 9.2mph /  14.8km/h 26mph /  41.8km/h 83% 0.00in /  0mm 221 W/m2
11:49 56.3 °F /  13.5 °C 51 °F /  10.6 °C 29.66in /  1004.3hPa WNW 11.3mph /  18.2km/h 26mph /  41.8km/h 82.4% 0.00in /  0mm 167 W/m2
11:54 56.2 °F /  13.4 °C 50.5 °F /  10.3 °C 29.66in /  1004.3hPa WNW 12mph /  19.3km/h 21mph /  33.8km/h 81.1% 0.00in /  0mm 156 W/m2
11:59 55.9 °F /  13.3 °C 50.2 °F /  10.1 °C 29.66in /  1004.3hPa WNW 8.7mph /  14km/h 20mph /  32.2km/h 81.2% 0.00in /  0mm 142 W/m2
12:04 55.7 °F /  13.2 °C 50.6 °F /  10.3 °C 29.66in /  1004.3hPa WNW 8.8mph /  14.2km/h 16mph /  25.7km/h 82.7% 0.00in /  0mm 156 W/m2
12:09 55.8 °F /  13.2 °C 50.8 °F /  10.4 °C 29.66in /  1004.3hPa WNW 8.2mph /  13.2km/h 17mph /  27.4km/h 83% 0.00in /  0mm 185 W/m2
12:14 56.1 °F /  13.4 °C 50.8 °F /  10.4 °C 29.66in /  1004.3hPa WNW 11.3mph /  18.2km/h 23mph /  37km/h 82.3% 0.00in /  0mm 179 W/m2
12:19 56.3 °F /  13.5 °C 50.4 °F /  10.2 °C 29.67in /  1004.6hPa WNW 13.8mph /  22.2km/h 22mph /  35.4km/h 80.7% 0.00in /  0mm 114 W/m2
12:24 56.3 °F /  13.5 °C 50.1 °F /  10.1 °C 29.67in /  1004.6hPa WNW 9.9mph /  15.9km/h 24mph /  38.6km/h 79.9% 0.00in /  0mm 77 W/m2
12:29 56.2 °F /  13.4 °C 50 °F /  10 °C 29.67in /  1004.6hPa WNW 8.8mph /  14.2km/h 24mph /  38.6km/h 80% 0.00in /  0mm 84 W/m2
12:34 56.1 °F /  13.4 °C 50 °F /  10 °C 29.67in /  1004.6hPa WNW 7.9mph /  12.7km/h 17mph /  27.4km/h 80% 0.00in /  0mm 105 W/m2
12:39 56.1 °F /  13.4 °C 50 °F /  10 °C 29.67in /  1004.6hPa West 7mph /  11.3km/h 17mph /  27.4km/h 80% 0.00in /  0mm 111 W/m2
12:44 56.1 °F /  13.4 °C 50 °F /  10 °C 29.67in /  1004.6hPa WNW 9.9mph /  15.9km/h 19mph /  30.6km/h 80% 0.00in /  0mm 142 W/m2
12:49 56.1 °F /  13.4 °C 50.2 °F /  10.1 °C 29.67in /  1004.6hPa WNW 6.3mph /  10.1km/h 14mph /  22.5km/h 80.5% 0.00in /  0mm 142 W/m2
12:54 55.9 °F /  13.3 °C 50.4 °F /  10.2 °C 29.67in /  1004.6hPa West 6.2mph /  10km/h 12mph /  19.3km/h 81.7% 0.01in /  0.25mm 98 W/m2
12:59 55.3 °F /  12.9 °C 50.4 °F /  10.2 °C 29.67in /  1004.6hPa West 6.3mph /  10.1km/h 12mph /  19.3km/h 83.4% 0.02in /  0.51mm 107 W/m2
13:04 54.9 °F /  12.7 °C 50.5 °F /  10.3 °C 29.67in /  1004.6hPa West 7mph /  11.3km/h 13mph /  20.9km/h 85.2% 0.02in /  0.51mm 113 W/m2
13:09 54.4 °F /  12.4 °C 50.5 °F /  10.3 °C 29.67in /  1004.6hPa West 5.1mph /  8.2km/h 11mph /  17.7km/h 86.6% 0.02in /  0.51mm 125 W/m2
13:14 54.3 °F /  12.4 °C 50.8 °F /  10.4 °C 29.67in /  1004.6hPa West 4.3mph /  6.9km/h 10mph /  16.1km/h 87.9% 0.02in /  0.51mm 151 W/m2
13:19 54.3 °F /  12.4 °C 51 °F /  10.6 °C 29.67in /  1004.6hPa West 3.2mph /  5.1km/h 8mph /  12.9km/h 88.3% 0.02in /  0.51mm 183 W/m2
13:24 54.3 °F /  12.4 °C 51.2 °F /  10.7 °C 29.67in /  1004.6hPa West 4.8mph /  7.7km/h 12mph /  19.3km/h 89% 0.03in /  0.76mm 193 W/m2
13:29 54.5 °F /  12.5 °C 51.4 °F /  10.8 °C 29.66in /  1004.3hPa WNW 5.3mph /  8.5km/h 10mph /  16.1km/h 89.5% 0.03in /  0.76mm 193 W/m2
13:34 54.6 °F /  12.6 °C 51.7 °F /  10.9 °C 29.67in /  1004.6hPa WNW 7.2mph /  11.6km/h 13mph /  20.9km/h 90% 0.03in /  0.76mm 186 W/m2
13:39 54.8 °F /  12.7 °C 51.8 °F /  11 °C 29.67in /  1004.6hPa WNW 6.3mph /  10.1km/h 11mph /  17.7km/h 90% 0.03in /  0.76mm 139 W/m2
13:44 54.8 °F /  12.7 °C 51.9 °F /  11.1 °C 29.67in /  1004.6hPa WNW 5.8mph /  9.3km/h 10mph /  16.1km/h 90% 0.03in /  0.76mm 127 W/m2
13:49 54.8 °F /  12.7 °C 51.9 °F /  11.1 °C 29.67in /  1004.6hPa West 6.4mph /  10.3km/h 11mph /  17.7km/h 90% 0.03in /  0.76mm 179 W/m2
13:54 54.9 °F /  12.7 °C 52 °F /  11.1 °C 29.67in /  1004.6hPa West 6.5mph /  10.5km/h 13mph /  20.9km/h 90% 0.03in /  0.76mm 207 W/m2
13:59 54.9 °F /  12.7 °C 52.1 °F /  11.2 °C 29.67in /  1004.6hPa West 7.1mph /  11.4km/h 12mph /  19.3km/h 90% 0.02in /  0.51mm 204 W/m2
14:04 55.1 °F /  12.8 °C 52.2 °F /  11.2 °C 29.67in /  1004.6hPa West 7.7mph /  12.4km/h 13mph /  20.9km/h 90% 0.02in /  0.51mm 229 W/m2
14:09 55.3 °F /  12.9 °C 52.4 °F /  11.3 °C 29.66in /  1004.3hPa WNW 5.7mph /  9.2km/h 13mph /  20.9km/h 90% 0.01in /  0.25mm 248 W/m2
14:14 55.6 °F /  13.1 °C 52.6 °F /  11.4 °C 29.67in /  1004.6hPa WNW 6mph /  9.7km/h 12mph /  19.3km/h 90% 0.01in /  0.25mm 178 W/m2
14:19 55.8 °F /  13.2 °C 52.6 °F /  11.4 °C 29.67in /  1004.6hPa West 5.4mph /  8.7km/h 11mph /  17.7km/h 89.4% 0.01in /  0.25mm 155 W/m2
14:24 55.8 °F /  13.2 °C 52.5 °F /  11.4 °C 29.67in /  1004.6hPa West 7mph /  11.3km/h 16mph /  25.7km/h 89% 0.00in /  0mm 130 W/m2
14:29 55.8 °F /  13.2 °C 52.5 °F /  11.4 °C 29.67in /  1004.6hPa WNW 9.7mph /  15.6km/h 17mph /  27.4km/h 89% 0.00in /  0mm 111 W/m2
14:34 55.8 °F /  13.2 °C 52.3 °F /  11.3 °C 29.67in /  1004.6hPa WNW 9.1mph /  14.6km/h 16mph /  25.7km/h 88.2% 0.00in /  0mm 90 W/m2
14:39 55.8 °F /  13.2 °C 52.1 °F /  11.2 °C 29.67in /  1004.6hPa WNW 7.8mph /  12.6km/h 16mph /  25.7km/h 87.3% 0.00in /  0mm 83 W/m2
14:44 55.8 °F /  13.2 °C 52.1 °F /  11.2 °C 29.67in /  1004.6hPa WNW 9.6mph /  15.4km/h 20mph /  32.2km/h 87% 0.00in /  0mm 90 W/m2
14:49 55.9 °F /  13.3 °C 52.2 °F /  11.2 °C 29.67in /  1004.6hPa WNW 6.3mph /  10.1km/h 12mph /  19.3km/h 87% 0.00in /  0mm 100 W/m2
14:54 55.9 °F /  13.3 °C 52.2 °F /  11.2 °C 29.67in /  1004.6hPa WNW 9.7mph /  15.6km/h 18mph /  29km/h 87% 0.00in /  0mm 91 W/m2
14:59 55.9 °F /  13.3 °C 52.2 °F /  11.2 °C 29.67in /  1004.6hPa WNW 8.5mph /  13.7km/h 18mph /  29km/h 87% 0.00in /  0mm 84 W/m2
15:04 55.7 °F /  13.2 °C 51.9 °F /  11.1 °C 29.68in /  1005hPa WNW 10mph /  16.1km/h 19mph /  30.6km/h 87% 0.00in /  0mm 81 W/m2
15:09 55.3 °F /  12.9 °C 51.7 °F /  10.9 °C 29.68in /  1005hPa WNW 7.8mph /  12.6km/h 19mph /  30.6km/h 87.3% 0.00in /  0mm 104 W/m2
15:14 55.2 °F /  12.9 °C 51.8 °F /  11 °C 29.67in /  1004.6hPa WNW 6.7mph /  10.8km/h 15mph /  24.1km/h 88% 0.01in /  0.25mm 100 W/m2
15:19 55.2 °F /  12.9 °C 51.9 °F /  11.1 °C 29.67in /  1004.6hPa NW 4.2mph /  6.8km/h 12mph /  19.3km/h 88.7% 0.01in /  0.25mm 100 W/m2
15:24 55.2 °F /  12.9 °C 52 °F /  11.1 °C 29.67in /  1004.6hPa WNW 3.9mph /  6.3km/h 8mph /  12.9km/h 89% 0.01in /  0.25mm 97 W/m2
15:29 55.1 °F /  12.8 °C 52.2 °F /  11.2 °C 29.67in /  1004.6hPa WNW 5.1mph /  8.2km/h 10mph /  16.1km/h 89.6% 0.01in /  0.25mm 69 W/m2
15:34 55 °F /  12.8 °C 52.2 °F /  11.2 °C 29.67in /  1004.6hPa West 4.5mph /  7.2km/h 10mph /  16.1km/h 90% 0.01in /  0.25mm 70 W/m2
15:39 55 °F /  12.8 °C 52.2 °F /  11.2 °C 29.67in /  1004.6hPa West 5.9mph /  9.5km/h 9mph /  14.5km/h 90% 0.01in /  0.25mm 70 W/m2
15:44 55 °F /  12.8 °C 52.2 °F /  11.2 °C 29.67in /  1004.6hPa West 5.3mph /  8.5km/h 10mph /  16.1km/h 90.1% 0.01in /  0.25mm 47 W/m2
15:49 55 °F /  12.8 °C 52.5 °F /  11.4 °C 29.67in /  1004.6hPa WNW 5.4mph /  8.7km/h 11mph /  17.7km/h 91% 0.01in /  0.25mm 81 W/m2
15:54 55 °F /  12.8 °C 52.5 °F /  11.4 °C 29.67in /  1004.6hPa WNW 5.7mph /  9.2km/h 11mph /  17.7km/h 91% 0.01in /  0.25mm 91 W/m2
15:59 55 °F /  12.8 °C 52.5 °F /  11.4 °C 29.67in /  1004.6hPa WNW 5.5mph /  8.9km/h 11mph /  17.7km/h 91% 0.01in /  0.25mm 74 W/m2
16:04 55 °F /  12.8 °C 52.7 °F /  11.5 °C 29.67in /  1004.6hPa WNW 3.9mph /  6.3km/h 10mph /  16.1km/h 91.7% 0.01in /  0.25mm 76 W/m2
16:09 55.2 °F /  12.9 °C 52.9 °F /  11.6 °C 29.67in /  1004.6hPa WNW 3.8mph /  6.1km/h 11mph /  17.7km/h 92% 0.01in /  0.25mm 63 W/m2
16:14 55.2 °F /  12.9 °C 52.9 °F /  11.6 °C 29.68in /  1005hPa WNW 2.7mph /  4.3km/h 5mph /  8km/h 92% 0.00in /  0mm 54 W/m2
16:19 55.3 °F /  12.9 °C 53 °F /  11.7 °C 29.68in /  1005hPa WNW 2.6mph /  4.2km/h 6mph /  9.7km/h 92% 0.00in /  0mm 62 W/m2
16:24 55.4 °F /  13 °C 53.1 °F /  11.7 °C 29.68in /  1005hPa WNW 6.6mph /  10.6km/h 14mph /  22.5km/h 92% 0.00in /  0mm 53 W/m2
16:29 55.2 °F /  12.9 °C 52.9 °F /  11.6 °C 29.68in /  1005hPa West 5.4mph /  8.7km/h 12mph /  19.3km/h 92% 0.00in /  0mm 42 W/m2
16:34 55.2 °F /  12.9 °C 52.9 °F /  11.6 °C 29.68in /  1005hPa WNW 3.3mph /  5.3km/h 10mph /  16.1km/h 92% 0.00in /  0mm 88 W/m2
16:39 55.4 °F /  13 °C 53.1 °F /  11.7 °C 29.68in /  1005hPa WNW 1.1mph /  1.8km/h 8mph /  12.9km/h 92% 0.00in /  0mm 114 W/m2
16:44 55.5 °F /  13.1 °C 53.2 °F /  11.8 °C 29.68in /  1005hPa WNW 0.9mph /  1.4km/h 5mph /  8km/h 92% 0.00in /  0mm 185 W/m2
16:49 55.8 °F /  13.2 °C 53.4 °F /  11.9 °C 29.68in /  1005hPa WNW 1mph /  1.6km/h 4mph /  6.4km/h 92% 0.00in /  0mm 206 W/m2
16:54 55.9 °F /  13.3 °C 53.6 °F /  12 °C 29.68in /  1005hPa West 2.5mph /  4km/h 7mph /  11.3km/h 92% 0.00in /  0mm 40 W/m2
16:59 55.9 °F /  13.3 °C 53.6 °F /  12 °C 29.68in /  1005hPa West 3.1mph /  5km/h 7mph /  11.3km/h 92% 0.00in /  0mm 46 W/m2
17:04 55.9 °F /  13.3 °C 53.5 °F /  11.9 °C 29.69in /  1005.3hPa West 4mph /  6.4km/h 9mph /  14.5km/h 92% 0.00in /  0mm 49 W/m2
17:09 55.9 °F /  13.3 °C 53.6 °F /  12 °C 29.69in /  1005.3hPa West 2.7mph /  4.3km/h 9mph /  14.5km/h 92% 0.00in /  0mm 35 W/m2
17:14 55.9 °F /  13.3 °C 53.5 °F /  11.9 °C 29.69in /  1005.3hPa West 2.9mph /  4.7km/h 6mph /  9.7km/h 91.3% 0.00in /  0mm 42 W/m2
17:19 55.9 °F /  13.3 °C 53.4 °F /  11.9 °C 29.69in /  1005.3hPa WNW 2.5mph /  4km/h 6mph /  9.7km/h 91% 0.00in /  0mm 46 W/m2
17:24 55.9 °F /  13.3 °C 53.4 °F /  11.9 °C 29.69in /  1005.3hPa WNW 2mph /  3.2km/h 6mph /  9.7km/h 91% 0.00in /  0mm 47 W/m2
17:29 55.9 °F /  13.3 °C 53.4 °F /  11.9 °C 29.69in /  1005.3hPa West 4.1mph /  6.6km/h 7mph /  11.3km/h 91% 0.00in /  0mm 49 W/m2
17:34 55.9 °F /  13.3 °C 53.4 °F /  11.9 °C 29.69in /  1005.3hPa West 2.5mph /  4km/h 7mph /  11.3km/h 91% 0.00in /  0mm 40 W/m2
17:39 55.9 °F /  13.3 °C 53.4 °F /  11.9 °C 29.70in /  1005.6hPa WNW 2.1mph /  3.4km/h 6mph /  9.7km/h 91% 0.00in /  0mm 23 W/m2
17:44 56 °F /  13.3 °C 53.5 °F /  11.9 °C 29.70in /  1005.6hPa WNW 2mph /  3.2km/h 6mph /  9.7km/h 91% 0.00in /  0mm 26 W/m2
17:49 56.1 °F /  13.4 °C 53.6 °F /  12 °C 29.70in /  1005.6hPa WNW 1.1mph /  1.8km/h 4mph /  6.4km/h 91% 0.00in /  0mm 33 W/m2
17:54 56.1 °F /  13.4 °C 53.6 °F /  12 °C 29.70in /  1005.6hPa WNW 0.9mph /  1.4km/h 4mph /  6.4km/h 91% 0.00in /  0mm 33 W/m2
17:59 56.1 °F /  13.4 °C 53.6 °F /  12 °C 29.70in /  1005.6hPa WNW 3mph /  4.8km/h 8mph /  12.9km/h 91% 0.00in /  0mm 26 W/m2
18:04 56.1 °F /  13.4 °C 53.6 °F /  12 °C 29.70in /  1005.6hPa WNW 3.4mph /  5.5km/h 7mph /  11.3km/h 91% 0.00in /  0mm 23 W/m2
18:09 56.1 °F /  13.4 °C 53.6 °F /  12 °C 29.70in /  1005.6hPa WNW 3mph /  4.8km/h 7mph /  11.3km/h 91% 0.00in /  0mm 23 W/m2
18:14 56.1 °F /  13.4 °C 53.6 °F /  12 °C 29.71in /  1006hPa WNW 1.3mph /  2.1km/h 7mph /  11.3km/h 91% 0.00in /  0mm 19 W/m2
18:19 56.1 °F /  13.4 °C 53.6 °F /  12 °C 29.71in /  1006hPa WNW 1.3mph /  2.1km/h 5mph /  8km/h 91% 0.00in /  0mm 14 W/m2
18:24 56.1 °F /  13.4 °C 53.6 °F /  12 °C 29.71in /  1006hPa WNW 0.8mph /  1.3km/h 5mph /  8km/h 91% 0.00in /  0mm 11 W/m2
18:29 56 °F /  13.3 °C 53.5 °F /  11.9 °C 29.71in /  1006hPa Calm   2mph /  3.2km/h 91% 0.00in /  0mm 9 W/m2
18:34 55.9 °F /  13.3 °C 53.4 °F /  11.9 °C 29.72in /  1006.3hPa Calm   1mph /  1.6km/h 91% 0.00in /  0mm 5 W/m2
18:39 55.9 °F /  13.3 °C 53.4 °F /  11.9 °C 29.72in /  1006.3hPa Calm     91% 0.00in /  0mm 5 W/m2
18:44 55.8 °F /  13.2 °C 53.2 °F /  11.8 °C 29.72in /  1006.3hPa Calm     91% 0.00in /  0mm 0 W/m2
18:49 55.8 °F /  13.2 °C 53.2 °F /  11.8 °C 29.72in /  1006.3hPa Calm     91% 0.00in /  0mm 0 W/m2
18:54 55.5 °F /  13.1 °C 53 °F /  11.7 °C 29.72in /  1006.3hPa Calm     91% 0.00in /  0mm 0 W/m2
18:59 55.3 °F /  12.9 °C 52.8 °F /  11.6 °C 29.72in /  1006.3hPa Calm     91% 0.00in /  0mm 0 W/m2
19:04 55 °F /  12.8 °C 52.5 °F /  11.4 °C 29.72in /  1006.3hPa Calm     91% 0.00in /  0mm 0 W/m2
19:09 54.8 °F /  12.7 °C 52.3 °F /  11.3 °C 29.72in /  1006.3hPa Calm     91% 0.00in /  0mm 0 W/m2
19:14 54.4 °F /  12.4 °C 51.9 °F /  11.1 °C 29.73in /  1006.7hPa Calm     91% 0.00in /  0mm 0 W/m2
19:19 54.1 °F /  12.3 °C 51.6 °F /  10.9 °C 29.73in /  1006.7hPa Calm     91% 0.00in /  0mm 0 W/m2
19:24 53.8 °F /  12.1 °C 51.3 °F /  10.7 °C 29.74in /  1007hPa Calm     91% 0.00in /  0mm 0 W/m2
19:29 53.5 °F /  11.9 °C 51 °F /  10.6 °C 29.74in /  1007hPa Calm     91% 0.00in /  0mm 0 W/m2
19:34 53.2 °F /  11.8 °C 50.7 °F /  10.4 °C 29.74in /  1007hPa Calm     91% 0.00in /  0mm 0 W/m2
19:39 53.1 °F /  11.7 °C 50.5 °F /  10.3 °C 29.74in /  1007hPa Calm     91.2% 0.00in /  0mm 0 W/m2
19:44 52.7 °F /  11.5 °C 50.4 °F /  10.2 °C 29.75in /  1007.3hPa Calm     91.9% 0.00in /  0mm 0 W/m2
19:49 52.3 °F /  11.3 °C 50 °F /  10 °C 29.75in /  1007.3hPa Calm     91.8% 0.00in /  0mm 0 W/m2
19:54 52.2 °F /  11.2 °C 49.8 °F /  9.9 °C 29.75in /  1007.3hPa Calm     92% 0.00in /  0mm 0 W/m2
19:59 52.2 °F /  11.2 °C 49.8 °F /  9.9 °C 29.75in /  1007.3hPa Calm     92% 0.00in /  0mm 0 W/m2
20:04 52.1 °F /  11.2 °C 49.7 °F /  9.8 °C 29.74in /  1007hPa Calm     92% 0.00in /  0mm 0 W/m2
20:09 51.9 °F /  11.1 °C 49.6 °F /  9.8 °C 29.74in /  1007hPa Calm     92% 0.00in /  0mm 0 W/m2
20:14 51.8 °F /  11 °C 49.6 °F /  9.8 °C 29.75in /  1007.3hPa Calm     92% 0.00in /  0mm 0 W/m2
20:19 51.6 °F /  10.9 °C 49.5 °F /  9.7 °C 29.75in /  1007.3hPa Calm     92% 0.00in /  0mm 0 W/m2
20:24 51.3 °F /  10.7 °C 49.1 °F /  9.5 °C 29.76in /  1007.7hPa WNW 0.4mph /  0.6km/h 3mph /  4.8km/h 92% 0.00in /  0mm 0 W/m2
20:29 51.3 °F /  10.7 °C 49.1 °F /  9.5 °C 29.76in /  1007.7hPa WNW 2.2mph /  3.5km/h 4mph /  6.4km/h 92% 0.00in /  0mm 0 W/m2
20:34 51.3 °F /  10.7 °C 49.2 °F /  9.6 °C 29.76in /  1007.7hPa WNW 0.6mph /  1km/h 3mph /  4.8km/h 92.4% 0.00in /  0mm 0 W/m2
20:39 51.3 °F /  10.7 °C 49.3 °F /  9.6 °C 29.77in /  1008hPa Calm     93% 0.00in /  0mm 0 W/m2
20:44 51.3 °F /  10.7 °C 49.3 °F /  9.6 °C 29.77in /  1008hPa Calm   1mph /  1.6km/h 93% 0.00in /  0mm 0 W/m2
20:49 51.4 °F /  10.8 °C 49.4 °F /  9.7 °C 29.77in /  1008hPa Calm   1mph /  1.6km/h 93% 0.00in /  0mm 0 W/m2
20:54 51.4 °F /  10.8 °C 49.5 °F /  9.7 °C 29.77in /  1008hPa Calm     93% 0.00in /  0mm 0 W/m2
20:59 51.4 °F /  10.8 °C 49.5 °F /  9.7 °C 29.78in /  1008.4hPa Calm     93% 0.00in /  0mm 0 W/m2
21:04 51.4 °F /  10.8 °C 49.5 °F /  9.7 °C 29.78in /  1008.4hPa Calm     93% 0.00in /  0mm 0 W/m2
21:09 51.5 °F /  10.8 °C 49.6 °F /  9.8 °C 29.78in /  1008.4hPa Calm     93% 0.00in /  0mm 0 W/m2
21:14 51.6 °F /  10.9 °C 49.6 °F /  9.8 °C 29.78in /  1008.4hPa Calm     93% 0.00in /  0mm 0 W/m2
21:19 51.7 °F /  10.9 °C 49.7 °F /  9.8 °C 29.78in /  1008.4hPa Calm     93% 0.00in /  0mm 0 W/m2
21:24 51.8 °F /  11 °C 49.8 °F /  9.9 °C 29.78in /  1008.4hPa Calm     93% 0.00in /  0mm 0 W/m2
21:29 51.7 °F /  10.9 °C 49.8 °F /  9.9 °C 29.79in /  1008.7hPa Calm     93.2% 0.00in /  0mm 0 W/m2
21:34 51.6 °F /  10.9 °C 49.7 °F /  9.8 °C 29.79in /  1008.7hPa Calm   1mph /  1.6km/h 93.3% 0.00in /  0mm 0 W/m2
21:39 51.6 °F /  10.9 °C 49.6 °F /  9.8 °C 29.79in /  1008.7hPa Calm   1mph /  1.6km/h 93% 0.00in /  0mm 0 W/m2
21:44 51.4 °F /  10.8 °C 49.6 °F /  9.8 °C 29.80in /  1009hPa Calm     93.5% 0.00in /  0mm 0 W/m2
21:49 51.2 °F /  10.7 °C 49.6 °F /  9.8 °C 29.80in /  1009hPa Calm     94% 0.00in /  0mm 0 W/m2
21:54 51 °F /  10.6 °C 49.1 °F /  9.5 °C 29.80in /  1009hPa Calm     93.3% 0.00in /  0mm 0 W/m2
21:59 50.9 °F /  10.5 °C 48.9 °F /  9.4 °C 29.80in /  1009hPa Calm     93% 0.00in /  0mm 0 W/m2
22:04 50.7 °F /  10.4 °C 48.8 °F /  9.3 °C 29.81in /  1009.4hPa Calm     93.3% 0.00in /  0mm 0 W/m2
22:09 50.7 °F /  10.4 °C 49.1 °F /  9.5 °C 29.81in /  1009.4hPa Calm     94% 0.00in /  0mm 0 W/m2
22:14 50.6 °F /  10.3 °C 49 °F /  9.4 °C 29.81in /  1009.4hPa Calm     94% 0.00in /  0mm 0 W/m2
22:19 50.5 °F /  10.3 °C 48.9 °F /  9.4 °C 29.81in /  1009.4hPa Calm     94% 0.00in /  0mm 0 W/m2
22:24 50.5 °F /  10.3 °C 48.9 °F /  9.4 °C 29.81in /  1009.4hPa Calm     94% 0.00in /  0mm 0 W/m2
22:29 50.5 °F /  10.3 °C 48.9 °F /  9.4 °C 29.81in /  1009.4hPa Calm     94% 0.00in /  0mm 0 W/m2
22:34 50.4 °F /  10.2 °C 48.7 °F /  9.3 °C 29.81in /  1009.4hPa Calm   1mph /  1.6km/h 94% 0.00in /  0mm 0 W/m2
22:39 50.4 °F /  10.2 °C 48.7 °F /  9.3 °C 29.81in /  1009.4hPa WNW 0.1mph /  0.2km/h 1mph /  1.6km/h 94% 0.00in /  0mm 0 W/m2
22:44 50.1 °F /  10.1 °C 48.5 °F /  9.2 °C 29.81in /  1009.4hPa WNW 0.9mph /  1.4km/h 2mph /  3.2km/h 94% 0.00in /  0mm 0 W/m2
22:49 49.9 °F /  9.9 °C 48.3 °F /  9.1 °C 29.80in /  1009hPa WNW 0.7mph /  1.1km/h 3mph /  4.8km/h 94% 0.00in /  0mm 0 W/m2
22:54 49.9 °F /  9.9 °C 48.3 °F /  9.1 °C 29.80in /  1009hPa WNW 0.3mph /  0.5km/h 3mph /  4.8km/h 94% 0.00in /  0mm 0 W/m2
22:59 50 °F /  10 °C 48.4 °F /  9.1 °C 29.80in /  1009hPa Calm   2mph /  3.2km/h 94% 0.00in /  0mm 0 W/m2
23:04 50 °F /  10 °C 48.4 °F /  9.1 °C 29.81in /  1009.4hPa Calm   1mph /  1.6km/h 94% 0.00in /  0mm 0 W/m2
23:09 49.8 °F /  9.9 °C 48.2 °F /  9 °C 29.81in /  1009.4hPa Calm   1mph /  1.6km/h 94% 0.00in /  0mm 0 W/m2
23:14 49.6 °F /  9.8 °C 47.9 °F /  8.8 °C 29.82in /  1009.7hPa Calm     94% 0.00in /  0mm 0 W/m2
23:19 49.5 °F /  9.7 °C 47.8 °F /  8.8 °C 29.82in /  1009.7hPa Calm     94% 0.00in /  0mm 0 W/m2
23:24 49.3 °F /  9.6 °C 47.7 °F /  8.7 °C 29.82in /  1009.7hPa WNW 0.3mph /  0.5km/h 1mph /  1.6km/h 94% 0.00in /  0mm 0 W/m2
23:29 49.2 °F /  9.6 °C 47.6 °F /  8.7 °C 29.82in /  1009.7hPa WNW 0.1mph /  0.2km/h 1mph /  1.6km/h 94% 0.00in /  0mm 0 W/m2
23:34 49.1 °F /  9.5 °C 47.5 °F /  8.6 °C 29.83in /  1010hPa Calm     94% 0.00in /  0mm 0 W/m2
23:39 49.1 °F /  9.5 °C 47.5 °F /  8.6 °C 29.83in /  1010hPa Calm     94% 0.00in /  0mm 0 W/m2
23:44 49 °F /  9.4 °C 47.4 °F /  8.6 °C 29.83in /  1010hPa Calm     94% 0.00in /  0mm 0 W/m2
23:49 48.9 °F /  9.4 °C 47.3 °F /  8.5 °C 29.84in /  1010.4hPa Calm     94% 0.00in /  0mm 0 W/m2
23:54 48.9 °F /  9.4 °C 47.3 °F /  8.5 °C 29.84in /  1010.4hPa Calm     94% 0.00in /  0mm 0 W/m2
23:59 48.9 °F /  9.4 °C 47.3 °F /  8.5 °C 29.84in /  1010.4hPa WNW 0.1mph /  0.2km/h 1mph /  1.6km/h 94% 0.00in /  0mm 0 W/m2
Bath Spa Weather
Compliments of Weather Underground - 2 mb